sensor_id;sensor_type;location;lat;lon;timestamp;P1;durP1;ratioP1;P2;durP2;ratioP2
55009;SDS011;40903;51.638;7.528;2022-08-21T00:00:13;5.27;;;3.27;;
55009;SDS011;40903;51.638;7.528;2022-08-21T00:02:50;4.27;;;3.37;;
55009;SDS011;40903;51.638;7.528;2022-08-21T00:05:24;4.93;;;3.43;;
55009;SDS011;40903;51.638;7.528;2022-08-21T00:07:49;6.47;;;3.53;;
55009;SDS011;40903;51.638;7.528;2022-08-21T00:10:15;5.60;;;3.50;;
55009;SDS011;40903;51.638;7.528;2022-08-21T00:12:42;9.37;;;3.67;;
55009;SDS011;40903;51.638;7.528;2022-08-21T00:15:09;5.83;;;3.20;;
55009;SDS011;40903;51.638;7.528;2022-08-21T00:17:37;4.20;;;3.10;;
55009;SDS011;40903;51.638;7.528;2022-08-21T00:20:04;6.03;;;3.90;;
55009;SDS011;40903;51.638;7.528;2022-08-21T00:22:31;8.27;;;3.67;;
55009;SDS011;40903;51.638;7.528;2022-08-21T00:24:57;4.37;;;3.63;;
55009;SDS011;40903;51.638;7.528;2022-08-21T00:27:22;5.27;;;3.83;;
55009;SDS011;40903;51.638;7.528;2022-08-21T00:29:48;4.57;;;3.50;;
55009;SDS011;40903;51.638;7.528;2022-08-21T00:32:18;4.67;;;3.10;;
55009;SDS011;40903;51.638;7.528;2022-08-21T00:34:45;5.87;;;3.90;;
55009;SDS011;40903;51.638;7.528;2022-08-21T00:37:10;6.63;;;3.83;;
55009;SDS011;40903;51.638;7.528;2022-08-21T00:39:36;5.50;;;3.90;;
55009;SDS011;40903;51.638;7.528;2022-08-21T00:42:02;6.97;;;4.47;;
55009;SDS011;40903;51.638;7.528;2022-08-21T00:44:28;3.73;;;3.27;;
55009;SDS011;40903;51.638;7.528;2022-08-21T00:46:53;6.83;;;3.83;;
55009;SDS011;40903;51.638;7.528;2022-08-21T00:49:18;6.50;;;3.80;;
55009;SDS011;40903;51.638;7.528;2022-08-21T00:51:49;7.03;;;3.57;;
55009;SDS011;40903;51.638;7.528;2022-08-21T00:54:18;5.27;;;3.50;;
55009;SDS011;40903;51.638;7.528;2022-08-21T00:56:48;8.10;;;3.43;;
55009;SDS011;40903;51.638;7.528;2022-08-21T00:59:18;6.23;;;3.77;;
55009;SDS011;40903;51.638;7.528;2022-08-21T01:01:45;4.47;;;3.53;;
55009;SDS011;40903;51.638;7.528;2022-08-21T01:04:11;5.50;;;3.43;;
55009;SDS011;40903;51.638;7.528;2022-08-21T01:06:37;4.80;;;3.83;;
55009;SDS011;40903;51.638;7.528;2022-08-21T01:09:02;7.10;;;3.30;;
55009;SDS011;40903;51.638;7.528;2022-08-21T01:11:27;4.93;;;3.43;;
55009;SDS011;40903;51.638;7.528;2022-08-21T01:13:54;5.43;;;3.63;;
55009;SDS011;40903;51.638;7.528;2022-08-21T01:16:20;5.73;;;3.53;;
55009;SDS011;40903;51.638;7.528;2022-08-21T01:18:47;6.77;;;3.60;;
55009;SDS011;40903;51.638;7.528;2022-08-21T01:21:14;6.37;;;3.67;;
55009;SDS011;40903;51.638;7.528;2022-08-21T01:23:44;7.97;;;4.00;;
55009;SDS011;40903;51.638;7.528;2022-08-21T01:26:14;6.97;;;3.93;;
55009;SDS011;40903;51.638;7.528;2022-08-21T01:28:45;9.20;;;4.40;;
55009;SDS011;40903;51.638;7.528;2022-08-21T01:31:15;8.23;;;4.27;;
55009;SDS011;40903;51.638;7.528;2022-08-21T01:33:44;6.80;;;4.00;;
55009;SDS011;40903;51.638;7.528;2022-08-21T01:36:09;6.20;;;4.27;;
55009;SDS011;40903;51.638;7.528;2022-08-21T01:38:35;5.27;;;3.97;;
55009;SDS011;40903;51.638;7.528;2022-08-21T01:41:00;6.83;;;4.50;;
55009;SDS011;40903;51.638;7.528;2022-08-21T01:43:26;7.47;;;5.17;;
55009;SDS011;40903;51.638;7.528;2022-08-21T01:45:51;6.03;;;4.37;;
55009;SDS011;40903;51.638;7.528;2022-08-21T01:48:16;8.00;;;4.80;;
55009;SDS011;40903;51.638;7.528;2022-08-21T01:50:42;8.53;;;5.10;;
55009;SDS011;40903;51.638;7.528;2022-08-21T01:53:07;8.03;;;5.13;;
55009;SDS011;40903;51.638;7.528;2022-08-21T01:55:32;5.47;;;4.57;;
55009;SDS011;40903;51.638;7.528;2022-08-21T01:57:58;5.10;;;4.47;;
55009;SDS011;40903;51.638;7.528;2022-08-21T02:00:24;7.10;;;4.70;;
55009;SDS011;40903;51.638;7.528;2022-08-21T02:02:49;6.50;;;4.50;;
55009;SDS011;40903;51.638;7.528;2022-08-21T02:05:15;6.13;;;4.47;;
55009;SDS011;40903;51.638;7.528;2022-08-21T02:07:42;6.13;;;5.10;;
55009;SDS011;40903;51.638;7.528;2022-08-21T02:10:11;8.13;;;4.93;;
55009;SDS011;40903;51.638;7.528;2022-08-21T02:12:37;5.93;;;4.47;;
55009;SDS011;40903;51.638;7.528;2022-08-21T02:15:03;7.83;;;4.90;;
55009;SDS011;40903;51.638;7.528;2022-08-21T02:17:37;6.60;;;5.27;;
55009;SDS011;40903;51.638;7.528;2022-08-21T02:20:07;6.73;;;4.37;;
55009;SDS011;40903;51.638;7.528;2022-08-21T02:22:33;5.13;;;4.53;;
55009;SDS011;40903;51.638;7.528;2022-08-21T02:24:58;5.40;;;4.90;;
55009;SDS011;40903;51.638;7.528;2022-08-21T02:27:24;6.47;;;5.00;;
55009;SDS011;40903;51.638;7.528;2022-08-21T02:29:50;8.37;;;4.93;;
55009;SDS011;40903;51.638;7.528;2022-08-21T02:32:15;8.33;;;5.10;;
55009;SDS011;40903;51.638;7.528;2022-08-21T02:34:40;6.80;;;5.00;;
55009;SDS011;40903;51.638;7.528;2022-08-21T02:37:06;9.03;;;5.07;;
55009;SDS011;40903;51.638;7.528;2022-08-21T02:39:31;6.77;;;4.97;;
55009;SDS011;40903;51.638;7.528;2022-08-21T02:41:56;6.83;;;5.40;;
55009;SDS011;40903;51.638;7.528;2022-08-21T02:44:22;5.90;;;4.97;;
55009;SDS011;40903;51.638;7.528;2022-08-21T02:46:47;6.13;;;4.93;;
55009;SDS011;40903;51.638;7.528;2022-08-21T02:49:12;5.70;;;5.03;;
55009;SDS011;40903;51.638;7.528;2022-08-21T02:51:38;6.97;;;5.23;;
55009;SDS011;40903;51.638;7.528;2022-08-21T02:54:03;5.73;;;4.93;;
55009;SDS011;40903;51.638;7.528;2022-08-21T02:56:28;5.67;;;5.07;;
55009;SDS011;40903;51.638;7.528;2022-08-21T02:58:54;6.00;;;5.40;;
55009;SDS011;40903;51.638;7.528;2022-08-21T03:01:19;10.83;;;5.53;;
55009;SDS011;40903;51.638;7.528;2022-08-21T03:03:45;7.63;;;5.70;;
55009;SDS011;40903;51.638;7.528;2022-08-21T03:06:14;10.23;;;6.70;;
55009;SDS011;40903;51.638;7.528;2022-08-21T03:08:41;7.10;;;6.37;;
55009;SDS011;40903;51.638;7.528;2022-08-21T03:11:06;7.20;;;6.40;;
55009;SDS011;40903;51.638;7.528;2022-08-21T03:13:32;10.57;;;6.70;;
55009;SDS011;40903;51.638;7.528;2022-08-21T03:15:58;8.23;;;6.43;;
55009;SDS011;40903;51.638;7.528;2022-08-21T03:18:24;6.77;;;6.07;;
55009;SDS011;40903;51.638;7.528;2022-08-21T03:20:49;7.30;;;5.70;;
55009;SDS011;40903;51.638;7.528;2022-08-21T03:23:16;6.97;;;6.23;;
55009;SDS011;40903;51.638;7.528;2022-08-21T03:25:42;12.30;;;6.70;;
55009;SDS011;40903;51.638;7.528;2022-08-21T03:28:12;6.93;;;5.97;;
55009;SDS011;40903;51.638;7.528;2022-08-21T03:30:41;8.57;;;6.17;;
55009;SDS011;40903;51.638;7.528;2022-08-21T03:33:11;9.37;;;6.40;;
55009;SDS011;40903;51.638;7.528;2022-08-21T03:35:37;7.87;;;6.97;;
55009;SDS011;40903;51.638;7.528;2022-08-21T03:38:03;9.63;;;6.90;;
55009;SDS011;40903;51.638;7.528;2022-08-21T03:40:28;10.17;;;6.47;;
55009;SDS011;40903;51.638;7.528;2022-08-21T03:42:54;8.40;;;6.80;;
55009;SDS011;40903;51.638;7.528;2022-08-21T03:45:19;8.17;;;6.53;;
55009;SDS011;40903;51.638;7.528;2022-08-21T03:47:56;9.43;;;5.97;;
55009;SDS011;40903;51.638;7.528;2022-08-21T03:50:27;7.83;;;6.83;;
55009;SDS011;40903;51.638;7.528;2022-08-21T03:52:55;8.27;;;6.37;;
55009;SDS011;40903;51.638;7.528;2022-08-21T03:55:21;7.87;;;6.50;;
55009;SDS011;40903;51.638;7.528;2022-08-21T03:57:46;6.93;;;6.17;;
55009;SDS011;40903;51.638;7.528;2022-08-21T04:00:13;9.00;;;6.80;;
55009;SDS011;40903;51.638;7.528;2022-08-21T04:02:40;7.60;;;6.47;;
55009;SDS011;40903;51.638;7.528;2022-08-21T04:05:06;8.13;;;7.30;;
55009;SDS011;40903;51.638;7.528;2022-08-21T04:07:33;7.93;;;6.47;;
55009;SDS011;40903;51.638;7.528;2022-08-21T04:09:58;8.90;;;6.67;;
55009;SDS011;40903;51.638;7.528;2022-08-21T04:12:24;9.33;;;7.00;;
55009;SDS011;40903;51.638;7.528;2022-08-21T04:14:49;9.40;;;6.83;;
55009;SDS011;40903;51.638;7.528;2022-08-21T04:17:16;8.90;;;7.53;;
55009;SDS011;40903;51.638;7.528;2022-08-21T04:19:42;7.97;;;7.00;;
55009;SDS011;40903;51.638;7.528;2022-08-21T04:22:07;9.33;;;6.97;;
55009;SDS011;40903;51.638;7.528;2022-08-21T04:24:33;9.70;;;7.40;;
55009;SDS011;40903;51.638;7.528;2022-08-21T04:26:59;8.40;;;7.07;;
55009;SDS011;40903;51.638;7.528;2022-08-21T04:29:24;8.67;;;6.83;;
55009;SDS011;40903;51.638;7.528;2022-08-21T04:31:50;7.50;;;6.73;;
55009;SDS011;40903;51.638;7.528;2022-08-21T04:34:17;10.77;;;8.30;;
55009;SDS011;40903;51.638;7.528;2022-08-21T04:36:42;11.57;;;7.70;;
55009;SDS011;40903;51.638;7.528;2022-08-21T04:39:08;13.30;;;8.37;;
55009;SDS011;40903;51.638;7.528;2022-08-21T04:41:33;7.50;;;6.80;;
55009;SDS011;40903;51.638;7.528;2022-08-21T04:43:58;8.37;;;7.57;;
55009;SDS011;40903;51.638;7.528;2022-08-21T04:46:24;8.93;;;7.63;;
55009;SDS011;40903;51.638;7.528;2022-08-21T04:48:50;10.07;;;7.97;;
55009;SDS011;40903;51.638;7.528;2022-08-21T04:51:16;9.03;;;7.80;;
55009;SDS011;40903;51.638;7.528;2022-08-21T04:53:52;8.60;;;7.57;;
55009;SDS011;40903;51.638;7.528;2022-08-21T04:56:22;8.93;;;7.73;;
55009;SDS011;40903;51.638;7.528;2022-08-21T04:58:50;12.37;;;8.77;;
55009;SDS011;40903;51.638;7.528;2022-08-21T05:01:21;10.13;;;8.27;;
55009;SDS011;40903;51.638;7.528;2022-08-21T05:03:49;9.87;;;7.73;;
55009;SDS011;40903;51.638;7.528;2022-08-21T05:06:17;10.60;;;8.30;;
55009;SDS011;40903;51.638;7.528;2022-08-21T05:08:43;9.40;;;8.40;;
55009;SDS011;40903;51.638;7.528;2022-08-21T05:11:11;9.70;;;7.70;;
55009;SDS011;40903;51.638;7.528;2022-08-21T05:13:38;9.67;;;7.97;;
55009;SDS011;40903;51.638;7.528;2022-08-21T05:16:06;10.10;;;7.00;;
55009;SDS011;40903;51.638;7.528;2022-08-21T05:18:31;8.50;;;7.63;;
55009;SDS011;40903;51.638;7.528;2022-08-21T05:20:57;9.30;;;8.40;;
55009;SDS011;40903;51.638;7.528;2022-08-21T05:23:22;9.43;;;8.40;;
55009;SDS011;40903;51.638;7.528;2022-08-21T05:25:48;8.80;;;7.87;;
55009;SDS011;40903;51.638;7.528;2022-08-21T05:28:13;9.73;;;8.77;;
55009;SDS011;40903;51.638;7.528;2022-08-21T05:30:38;9.87;;;7.90;;
55009;SDS011;40903;51.638;7.528;2022-08-21T05:33:05;9.40;;;8.33;;
55009;SDS011;40903;51.638;7.528;2022-08-21T05:35:32;8.37;;;7.57;;
55009;SDS011;40903;51.638;7.528;2022-08-21T05:37:58;10.30;;;8.50;;
55009;SDS011;40903;51.638;7.528;2022-08-21T05:40:25;8.83;;;7.83;;
55009;SDS011;40903;51.638;7.528;2022-08-21T05:42:51;9.33;;;8.03;;
55009;SDS011;40903;51.638;7.528;2022-08-21T05:45:18;9.63;;;8.63;;
55009;SDS011;40903;51.638;7.528;2022-08-21T05:47:43;10.63;;;8.83;;
55009;SDS011;40903;51.638;7.528;2022-08-21T05:50:09;10.67;;;9.57;;
55009;SDS011;40903;51.638;7.528;2022-08-21T05:52:34;9.37;;;8.57;;
55009;SDS011;40903;51.638;7.528;2022-08-21T05:54:59;9.70;;;8.67;;
55009;SDS011;40903;51.638;7.528;2022-08-21T05:57:25;11.47;;;9.93;;
55009;SDS011;40903;51.638;7.528;2022-08-21T05:59:51;11.43;;;9.67;;
55009;SDS011;40903;51.638;7.528;2022-08-21T06:02:17;11.33;;;10.23;;
55009;SDS011;40903;51.638;7.528;2022-08-21T06:04:43;12.77;;;11.47;;
55009;SDS011;40903;51.638;7.528;2022-08-21T06:07:08;13.63;;;12.27;;
55009;SDS011;40903;51.638;7.528;2022-08-21T06:09:33;17.27;;;12.53;;
55009;SDS011;40903;51.638;7.528;2022-08-21T06:12:02;16.03;;;11.67;;
55009;SDS011;40903;51.638;7.528;2022-08-21T06:14:31;15.23;;;12.30;;
55009;SDS011;40903;51.638;7.528;2022-08-21T06:17:01;13.57;;;12.17;;
55009;SDS011;40903;51.638;7.528;2022-08-21T06:19:28;12.77;;;11.17;;
55009;SDS011;40903;51.638;7.528;2022-08-21T06:24:19;15.90;;;12.40;;
55009;SDS011;40903;51.638;7.528;2022-08-21T06:26:44;17.87;;;13.27;;
55009;SDS011;40903;51.638;7.528;2022-08-21T06:29:09;14.90;;;12.50;;
55009;SDS011;40903;51.638;7.528;2022-08-21T06:31:38;16.03;;;12.27;;
55009;SDS011;40903;51.638;7.528;2022-08-21T06:34:04;14.80;;;11.70;;
55009;SDS011;40903;51.638;7.528;2022-08-21T06:36:29;12.53;;;10.27;;
55009;SDS011;40903;51.638;7.528;2022-08-21T06:38:54;13.73;;;10.60;;
55009;SDS011;40903;51.638;7.528;2022-08-21T06:41:20;17.17;;;11.83;;
55009;SDS011;40903;51.638;7.528;2022-08-21T06:43:45;10.57;;;9.53;;
55009;SDS011;40903;51.638;7.528;2022-08-21T06:46:10;15.10;;;10.67;;
55009;SDS011;40903;51.638;7.528;2022-08-21T06:48:36;12.07;;;9.93;;
55009;SDS011;40903;51.638;7.528;2022-08-21T06:51:01;15.23;;;11.53;;
55009;SDS011;40903;51.638;7.528;2022-08-21T06:53:27;16.73;;;12.80;;
55009;SDS011;40903;51.638;7.528;2022-08-21T06:55:52;14.67;;;13.07;;
55009;SDS011;40903;51.638;7.528;2022-08-21T06:58:18;14.53;;;12.93;;
55009;SDS011;40903;51.638;7.528;2022-08-21T07:00:45;13.60;;;10.77;;
55009;SDS011;40903;51.638;7.528;2022-08-21T07:03:16;16.00;;;11.37;;
55009;SDS011;40903;51.638;7.528;2022-08-21T07:05:53;16.57;;;11.80;;
55009;SDS011;40903;51.638;7.528;2022-08-21T07:08:19;17.73;;;11.90;;
55009;SDS011;40903;51.638;7.528;2022-08-21T07:10:45;19.80;;;12.90;;
55009;SDS011;40903;51.638;7.528;2022-08-21T07:13:12;14.80;;;12.50;;
55009;SDS011;40903;51.638;7.528;2022-08-21T07:15:38;14.70;;;11.10;;
55009;SDS011;40903;51.638;7.528;2022-08-21T07:18:03;18.90;;;10.23;;
55009;SDS011;40903;51.638;7.528;2022-08-21T07:20:29;12.03;;;8.93;;
55009;SDS011;40903;51.638;7.528;2022-08-21T07:22:59;14.23;;;10.03;;
55009;SDS011;40903;51.638;7.528;2022-08-21T07:25:26;11.70;;;9.57;;
55009;SDS011;40903;51.638;7.528;2022-08-21T07:27:52;13.50;;;9.83;;
55009;SDS011;40903;51.638;7.528;2022-08-21T07:30:17;11.70;;;8.60;;
55009;SDS011;40903;51.638;7.528;2022-08-21T07:32:43;13.20;;;8.90;;
55009;SDS011;40903;51.638;7.528;2022-08-21T07:35:08;14.70;;;9.43;;
55009;SDS011;40903;51.638;7.528;2022-08-21T07:37:34;11.23;;;7.93;;
55009;SDS011;40903;51.638;7.528;2022-08-21T07:39:59;11.47;;;7.77;;
55009;SDS011;40903;51.638;7.528;2022-08-21T07:42:25;11.53;;;8.27;;
55009;SDS011;40903;51.638;7.528;2022-08-21T07:44:50;14.87;;;8.40;;
55009;SDS011;40903;51.638;7.528;2022-08-21T07:47:16;15.67;;;8.37;;
55009;SDS011;40903;51.638;7.528;2022-08-21T07:49:41;15.60;;;7.83;;
55009;SDS011;40903;51.638;7.528;2022-08-21T07:52:11;11.50;;;8.07;;
55009;SDS011;40903;51.638;7.528;2022-08-21T07:54:36;14.27;;;7.70;;
55009;SDS011;40903;51.638;7.528;2022-08-21T07:57:02;11.27;;;6.97;;
55009;SDS011;40903;51.638;7.528;2022-08-21T07:59:27;12.10;;;7.90;;
55009;SDS011;40903;51.638;7.528;2022-08-21T08:04:18;12.30;;;7.70;;
55009;SDS011;40903;51.638;7.528;2022-08-21T08:06:44;16.40;;;7.60;;
55009;SDS011;40903;51.638;7.528;2022-08-21T08:09:09;15.13;;;7.73;;
55009;SDS011;40903;51.638;7.528;2022-08-21T08:11:35;13.57;;;7.43;;
55009;SDS011;40903;51.638;7.528;2022-08-21T08:14:02;11.80;;;7.73;;
55009;SDS011;40903;51.638;7.528;2022-08-21T08:16:28;12.97;;;7.93;;
55009;SDS011;40903;51.638;7.528;2022-08-21T08:18:54;11.77;;;7.80;;
55009;SDS011;40903;51.638;7.528;2022-08-21T08:21:20;11.90;;;7.10;;
55009;SDS011;40903;51.638;7.528;2022-08-21T08:23:46;12.10;;;7.50;;
55009;SDS011;40903;51.638;7.528;2022-08-21T08:26:12;13.40;;;8.03;;
55009;SDS011;40903;51.638;7.528;2022-08-21T08:28:40;13.87;;;8.17;;
55009;SDS011;40903;51.638;7.528;2022-08-21T08:31:05;12.00;;;7.47;;
55009;SDS011;40903;51.638;7.528;2022-08-21T08:33:31;13.87;;;7.40;;
55009;SDS011;40903;51.638;7.528;2022-08-21T08:35:56;12.70;;;7.10;;
55009;SDS011;40903;51.638;7.528;2022-08-21T08:38:22;11.50;;;6.70;;
55009;SDS011;40903;51.638;7.528;2022-08-21T08:43:20;11.63;;;6.87;;
55009;SDS011;40903;51.638;7.528;2022-08-21T08:45:47;11.80;;;6.20;;
55009;SDS011;40903;51.638;7.528;2022-08-21T08:48:17;9.93;;;4.60;;
55009;SDS011;40903;51.638;7.528;2022-08-21T08:51:06;10.03;;;4.17;;
55009;SDS011;40903;51.638;7.528;2022-08-21T08:53:45;11.70;;;4.80;;
55009;SDS011;40903;51.638;7.528;2022-08-21T08:56:14;10.77;;;4.50;;
55009;SDS011;40903;51.638;7.528;2022-08-21T08:58:41;10.13;;;4.23;;
55009;SDS011;40903;51.638;7.528;2022-08-21T09:01:12;12.40;;;4.50;;
55009;SDS011;40903;51.638;7.528;2022-08-21T09:03:42;12.60;;;4.30;;
55009;SDS011;40903;51.638;7.528;2022-08-21T09:06:20;6.67;;;4.00;;
55009;SDS011;40903;51.638;7.528;2022-08-21T09:17:23;9.10;;;3.63;;
55009;SDS011;40903;51.638;7.528;2022-08-21T09:28:39;14.60;;;3.53;;
55009;SDS011;40903;51.638;7.528;2022-08-21T09:31:07;7.80;;;2.87;;
55009;SDS011;40903;51.638;7.528;2022-08-21T09:33:36;8.77;;;2.80;;
55009;SDS011;40903;51.638;7.528;2022-08-21T09:36:02;6.10;;;2.70;;
55009;SDS011;40903;51.638;7.528;2022-08-21T09:38:33;6.07;;;2.47;;
55009;SDS011;40903;51.638;7.528;2022-08-21T09:41:03;8.60;;;3.23;;
55009;SDS011;40903;51.638;7.528;2022-08-21T09:43:30;4.30;;;2.27;;
55009;SDS011;40903;51.638;7.528;2022-08-21T09:46:10;9.67;;;2.53;;
55009;SDS011;40903;51.638;7.528;2022-08-21T09:48:47;6.67;;;2.43;;
55009;SDS011;40903;51.638;7.528;2022-08-21T09:51:18;8.17;;;2.57;;
55009;SDS011;40903;51.638;7.528;2022-08-21T09:53:51;7.00;;;2.40;;
55009;SDS011;40903;51.638;7.528;2022-08-21T09:56:30;6.57;;;2.30;;
55009;SDS011;40903;51.638;7.528;2022-08-21T09:59:34;4.57;;;2.30;;
55009;SDS011;40903;51.638;7.528;2022-08-21T10:02:01;5.53;;;2.43;;
55009;SDS011;40903;51.638;7.528;2022-08-21T10:04:29;7.07;;;2.50;;
55009;SDS011;40903;51.638;7.528;2022-08-21T10:07:10;4.70;;;2.20;;
55009;SDS011;40903;51.638;7.528;2022-08-21T10:09:37;6.47;;;2.07;;
55009;SDS011;40903;51.638;7.528;2022-08-21T10:14:52;5.67;;;2.50;;
55009;SDS011;40903;51.638;7.528;2022-08-21T10:17:37;4.80;;;1.93;;
55009;SDS011;40903;51.638;7.528;2022-08-21T10:22:52;12.20;;;2.50;;
55009;SDS011;40903;51.638;7.528;2022-08-21T10:25:55;6.43;;;2.40;;
55009;SDS011;40903;51.638;7.528;2022-08-21T10:28:32;6.17;;;2.57;;
55009;SDS011;40903;51.638;7.528;2022-08-21T10:34:03;4.93;;;2.43;;
55009;SDS011;40903;51.638;7.528;2022-08-21T10:37:12;6.83;;;2.30;;
55009;SDS011;40903;51.638;7.528;2022-08-21T10:45:02;7.53;;;2.97;;
55009;SDS011;40903;51.638;7.528;2022-08-21T10:47:46;4.10;;;2.30;;
55009;SDS011;40903;51.638;7.528;2022-08-21T10:50:19;5.50;;;2.00;;
55009;SDS011;40903;51.638;7.528;2022-08-21T10:58:49;4.80;;;2.10;;
55009;SDS011;40903;51.638;7.528;2022-08-21T11:01:29;4.70;;;2.10;;
55009;SDS011;40903;51.638;7.528;2022-08-21T11:04:15;4.20;;;2.03;;
55009;SDS011;40903;51.638;7.528;2022-08-21T11:06:46;6.60;;;2.40;;
55009;SDS011;40903;51.638;7.528;2022-08-21T11:09:20;7.13;;;2.10;;
55009;SDS011;40903;51.638;7.528;2022-08-21T11:12:03;5.57;;;2.30;;
55009;SDS011;40903;51.638;7.528;2022-08-21T11:20:43;2.33;;;1.47;;
55009;SDS011;40903;51.638;7.528;2022-08-21T11:25:52;4.83;;;2.13;;
55009;SDS011;40903;51.638;7.528;2022-08-21T11:28:24;3.23;;;1.90;;
55009;SDS011;40903;51.638;7.528;2022-08-21T11:39:22;2.97;;;1.73;;
55009;SDS011;40903;51.638;7.528;2022-08-21T11:42:13;2.13;;;1.67;;
55009;SDS011;40903;51.638;7.528;2022-08-21T11:52:37;2.30;;;1.40;;
55009;SDS011;40903;51.638;7.528;2022-08-21T11:55:16;3.00;;;1.20;;
55009;SDS011;40903;51.638;7.528;2022-08-21T12:00:22;2.97;;;1.60;;
55009;SDS011;40903;51.638;7.528;2022-08-21T12:02:52;2.30;;;1.23;;
55009;SDS011;40903;51.638;7.528;2022-08-21T12:10:38;4.63;;;1.73;;
55009;SDS011;40903;51.638;7.528;2022-08-21T12:13:23;3.83;;;1.10;;
55009;SDS011;40903;51.638;7.528;2022-08-21T12:15:51;2.23;;;1.30;;
55009;SDS011;40903;51.638;7.528;2022-08-21T12:18:21;1.20;;;1.00;;
55009;SDS011;40903;51.638;7.528;2022-08-21T12:20:59;3.27;;;1.23;;
55009;SDS011;40903;51.638;7.528;2022-08-21T12:23:45;2.20;;;1.20;;
55009;SDS011;40903;51.638;7.528;2022-08-21T12:26:22;3.87;;;1.70;;
55009;SDS011;40903;51.638;7.528;2022-08-21T12:29:07;2.57;;;1.30;;
55009;SDS011;40903;51.638;7.528;2022-08-21T12:31:47;3.53;;;1.30;;
55009;SDS011;40903;51.638;7.528;2022-08-21T12:34:14;1.57;;;1.23;;
55009;SDS011;40903;51.638;7.528;2022-08-21T12:36:59;4.83;;;2.17;;
55009;SDS011;40903;51.638;7.528;2022-08-21T12:39:29;3.93;;;1.40;;
55009;SDS011;40903;51.638;7.528;2022-08-21T12:41:59;2.47;;;1.13;;
55009;SDS011;40903;51.638;7.528;2022-08-21T12:44:35;3.27;;;1.17;;
55009;SDS011;40903;51.638;7.528;2022-08-21T12:47:12;3.27;;;1.10;;
55009;SDS011;40903;51.638;7.528;2022-08-21T12:49:54;2.37;;;1.33;;
55009;SDS011;40903;51.638;7.528;2022-08-21T12:52:33;3.67;;;1.50;;
55009;SDS011;40903;51.638;7.528;2022-08-21T12:55:02;2.53;;;1.43;;
55009;SDS011;40903;51.638;7.528;2022-08-21T12:57:29;2.33;;;1.40;;
55009;SDS011;40903;51.638;7.528;2022-08-21T12:59:59;3.70;;;1.30;;
55009;SDS011;40903;51.638;7.528;2022-08-21T13:02:34;3.60;;;1.20;;
55009;SDS011;40903;51.638;7.528;2022-08-21T13:05:05;3.07;;;1.30;;
55009;SDS011;40903;51.638;7.528;2022-08-21T13:07:35;3.43;;;1.30;;
55009;SDS011;40903;51.638;7.528;2022-08-21T13:10:14;2.77;;;1.30;;
55009;SDS011;40903;51.638;7.528;2022-08-21T13:12:45;3.50;;;1.83;;
55009;SDS011;40903;51.638;7.528;2022-08-21T13:15:11;3.03;;;1.50;;
55009;SDS011;40903;51.638;7.528;2022-08-21T13:17:39;2.63;;;1.60;;
55009;SDS011;40903;51.638;7.528;2022-08-21T13:22:56;2.20;;;1.23;;
55009;SDS011;40903;51.638;7.528;2022-08-21T13:25:25;4.13;;;1.50;;
55009;SDS011;40903;51.638;7.528;2022-08-21T13:27:57;3.47;;;1.33;;
55009;SDS011;40903;51.638;7.528;2022-08-21T13:30:25;3.83;;;1.40;;
55009;SDS011;40903;51.638;7.528;2022-08-21T13:32:54;2.63;;;1.27;;
55009;SDS011;40903;51.638;7.528;2022-08-21T13:37:59;2.93;;;1.43;;
55009;SDS011;40903;51.638;7.528;2022-08-21T13:40:28;5.47;;;1.87;;
55009;SDS011;40903;51.638;7.528;2022-08-21T13:42:57;2.93;;;1.53;;
55009;SDS011;40903;51.638;7.528;2022-08-21T13:45:26;2.27;;;1.30;;
55009;SDS011;40903;51.638;7.528;2022-08-21T13:47:57;3.30;;;1.53;;
55009;SDS011;40903;51.638;7.528;2022-08-21T13:50:25;3.60;;;1.53;;
55009;SDS011;40903;51.638;7.528;2022-08-21T13:52:56;4.37;;;1.60;;
55009;SDS011;40903;51.638;7.528;2022-08-21T13:55:33;2.80;;;1.40;;
55009;SDS011;40903;51.638;7.528;2022-08-21T13:58:02;5.07;;;1.60;;
55009;SDS011;40903;51.638;7.528;2022-08-21T14:00:30;3.40;;;1.63;;
55009;SDS011;40903;51.638;7.528;2022-08-21T14:03:07;3.57;;;1.90;;
55009;SDS011;40903;51.638;7.528;2022-08-21T14:05:36;2.63;;;2.13;;
55009;SDS011;40903;51.638;7.528;2022-08-21T14:10:56;6.33;;;2.93;;
55009;SDS011;40903;51.638;7.528;2022-08-21T14:16:17;5.80;;;4.27;;
55009;SDS011;40903;51.638;7.528;2022-08-21T14:21:30;3.63;;;1.57;;
55009;SDS011;40903;51.638;7.528;2022-08-21T14:23:59;1.90;;;1.40;;
55009;SDS011;40903;51.638;7.528;2022-08-21T14:26:27;3.80;;;1.70;;
55009;SDS011;40903;51.638;7.528;2022-08-21T14:28:52;4.50;;;1.50;;
55009;SDS011;40903;51.638;7.528;2022-08-21T14:31:27;9.27;;;1.80;;
55009;SDS011;40903;51.638;7.528;2022-08-21T14:33:55;2.60;;;1.40;;
55009;SDS011;40903;51.638;7.528;2022-08-21T14:36:20;3.07;;;1.30;;
55009;SDS011;40903;51.638;7.528;2022-08-21T14:38:46;1.90;;;1.33;;
55009;SDS011;40903;51.638;7.528;2022-08-21T14:41:15;2.83;;;1.30;;
55009;SDS011;40903;51.638;7.528;2022-08-21T14:43:44;3.00;;;1.30;;
55009;SDS011;40903;51.638;7.528;2022-08-21T14:46:12;3.10;;;1.40;;
55009;SDS011;40903;51.638;7.528;2022-08-21T14:48:41;4.40;;;1.47;;
55009;SDS011;40903;51.638;7.528;2022-08-21T14:51:07;2.70;;;1.07;;
55009;SDS011;40903;51.638;7.528;2022-08-21T14:53:33;3.63;;;1.43;;
55009;SDS011;40903;51.638;7.528;2022-08-21T14:55:58;2.17;;;1.10;;
55009;SDS011;40903;51.638;7.528;2022-08-21T14:58:30;2.87;;;1.20;;
55009;SDS011;40903;51.638;7.528;2022-08-21T15:00:56;2.73;;;1.70;;
55009;SDS011;40903;51.638;7.528;2022-08-21T15:03:23;2.63;;;1.30;;
55009;SDS011;40903;51.638;7.528;2022-08-21T15:05:50;2.50;;;1.57;;
55009;SDS011;40903;51.638;7.528;2022-08-21T15:08:17;2.83;;;1.20;;
55009;SDS011;40903;51.638;7.528;2022-08-21T15:10:43;1.60;;;1.20;;
55009;SDS011;40903;51.638;7.528;2022-08-21T15:13:09;2.50;;;1.47;;
55009;SDS011;40903;51.638;7.528;2022-08-21T15:15:39;2.13;;;1.00;;
55009;SDS011;40903;51.638;7.528;2022-08-21T15:18:06;1.90;;;1.20;;
55009;SDS011;40903;51.638;7.528;2022-08-21T15:20:32;1.43;;;1.23;;
55009;SDS011;40903;51.638;7.528;2022-08-21T15:22:58;2.30;;;1.30;;
55009;SDS011;40903;51.638;7.528;2022-08-21T15:25:24;3.20;;;1.40;;
55009;SDS011;40903;51.638;7.528;2022-08-21T15:27:49;2.07;;;1.43;;
55009;SDS011;40903;51.638;7.528;2022-08-21T15:30:15;2.43;;;1.73;;
55009;SDS011;40903;51.638;7.528;2022-08-21T15:32:40;2.63;;;1.50;;
55009;SDS011;40903;51.638;7.528;2022-08-21T15:35:06;2.93;;;1.50;;
55009;SDS011;40903;51.638;7.528;2022-08-21T15:37:33;2.63;;;1.40;;
55009;SDS011;40903;51.638;7.528;2022-08-21T15:39:58;3.23;;;1.30;;
55009;SDS011;40903;51.638;7.528;2022-08-21T15:42:24;3.00;;;1.30;;
55009;SDS011;40903;51.638;7.528;2022-08-21T15:44:54;2.30;;;1.30;;
55009;SDS011;40903;51.638;7.528;2022-08-21T15:47:21;1.90;;;1.30;;
55009;SDS011;40903;51.638;7.528;2022-08-21T15:49:50;2.37;;;1.40;;
55009;SDS011;40903;51.638;7.528;2022-08-21T15:52:16;2.43;;;1.20;;
55009;SDS011;40903;51.638;7.528;2022-08-21T15:54:44;1.33;;;1.23;;
55009;SDS011;40903;51.638;7.528;2022-08-21T15:57:10;2.77;;;1.53;;
55009;SDS011;40903;51.638;7.528;2022-08-21T15:59:39;3.17;;;1.20;;
55009;SDS011;40903;51.638;7.528;2022-08-21T16:02:08;2.10;;;1.43;;
55009;SDS011;40903;51.638;7.528;2022-08-21T16:04:40;5.37;;;2.27;;
55009;SDS011;40903;51.638;7.528;2022-08-21T16:07:06;7.50;;;2.30;;
55009;SDS011;40903;51.638;7.528;2022-08-21T16:09:32;4.00;;;2.50;;
55009;SDS011;40903;51.638;7.528;2022-08-21T16:12:00;3.60;;;2.37;;
55009;SDS011;40903;51.638;7.528;2022-08-21T16:14:26;3.07;;;1.93;;
55009;SDS011;40903;51.638;7.528;2022-08-21T16:16:54;3.00;;;1.60;;
55009;SDS011;40903;51.638;7.528;2022-08-21T16:19:19;5.03;;;1.50;;
55009;SDS011;40903;51.638;7.528;2022-08-21T16:21:45;1.90;;;1.70;;